createdAt,value
2018-01-10T00:00:32.897Z,3.20
2018-01-10T00:03:00.396Z,3.20
2018-01-10T00:05:27.907Z,3.20
2018-01-10T00:07:55.584Z,3.10
2018-01-10T00:10:23.906Z,3.10
2018-01-10T00:12:51.430Z,3.10
2018-01-10T00:15:18.935Z,3.20
2018-01-10T00:17:46.439Z,3.20
2018-01-10T00:20:13.948Z,3.10
2018-01-10T00:22:42.214Z,3.10
2018-01-10T00:25:09.721Z,3.10
2018-01-10T00:27:37.423Z,3.20
2018-01-10T00:30:06.446Z,3.10
2018-01-10T00:32:33.943Z,3.10
2018-01-10T00:35:01.627Z,3.10
2018-01-10T00:37:29.396Z,3.20
2018-01-10T00:39:56.903Z,3.20
2018-01-10T00:42:24.405Z,3.10
2018-01-10T00:44:52.019Z,3.20
2018-01-10T00:47:19.529Z,3.20
2018-01-10T00:49:47.039Z,3.20
2018-01-10T00:52:14.745Z,3.10
2018-01-10T00:54:42.503Z,3.10
2018-01-10T00:57:10.263Z,3.10
2018-01-10T00:59:37.771Z,3.10
2018-01-10T01:02:05.447Z,3.00
2018-01-10T01:04:33.864Z,3.00
2018-01-10T01:07:01.366Z,3.00
2018-01-10T01:09:28.863Z,3.00
2018-01-10T01:11:56.536Z,3.00
2018-01-10T01:14:24.030Z,3.00
2018-01-10T01:16:51.740Z,2.90
2018-01-10T01:19:19.247Z,2.90
2018-01-10T01:21:46.747Z,2.90
2018-01-10T01:24:14.456Z,2.90
2018-01-10T01:26:41.962Z,2.90
2018-01-10T01:29:09.652Z,2.90
2018-01-10T01:31:37.158Z,2.80
2018-01-10T01:34:05.796Z,2.80
2018-01-10T01:36:33.699Z,2.80
2018-01-10T01:39:01.971Z,2.80
2018-01-10T01:41:29.714Z,2.70
2018-01-10T01:43:57.474Z,2.80
2018-01-10T01:46:24.975Z,2.80
2018-01-10T01:48:52.492Z,2.80
2018-01-10T01:51:20.015Z,2.80
2018-01-10T01:53:47.742Z,2.80
2018-01-10T01:56:15.309Z,2.80
2018-01-10T01:58:42.815Z,2.90
2018-01-10T02:01:10.551Z,2.80
2018-01-10T02:03:38.068Z,2.80
2018-01-10T02:06:05.572Z,2.90
2018-01-10T02:08:33.072Z,2.90
2018-01-10T02:11:00.710Z,2.90
2018-01-10T02:13:28.218Z,2.90
2018-01-10T02:15:55.949Z,2.90
2018-01-10T02:18:23.878Z,2.90
2018-01-10T02:20:51.375Z,3.00
2018-01-10T02:23:19.382Z,2.90
2018-01-10T02:25:46.952Z,2.90
2018-01-10T02:28:14.447Z,3.00
2018-01-10T02:30:41.944Z,3.00
2018-01-10T02:33:09.669Z,3.00
2018-01-10T02:35:37.180Z,3.00
2018-01-10T02:38:04.696Z,3.00
2018-01-10T02:40:32.235Z,3.00
2018-01-10T02:43:00.119Z,3.00
2018-01-10T02:45:28.472Z,3.00
2018-01-10T02:47:56.364Z,3.00
2018-01-10T02:50:24.011Z,3.00
2018-01-10T02:52:52.185Z,3.00
2018-01-10T02:55:20.839Z,3.00
2018-01-10T02:57:48.340Z,3.00
2018-01-10T03:00:16.267Z,3.10
2018-01-10T03:02:43.763Z,3.00
2018-01-10T03:05:12.779Z,3.10
2018-01-10T03:07:40.507Z,3.20
2018-01-10T03:10:08.271Z,3.10
2018-01-10T03:12:35.784Z,3.10
2018-01-10T03:15:04.131Z,3.10
2018-01-10T03:17:31.668Z,3.00
2018-01-10T03:19:59.327Z,3.10
2018-01-10T03:22:26.832Z,3.20
2018-01-10T03:24:54.547Z,3.20
2018-01-10T03:27:22.059Z,3.20
2018-01-10T03:29:49.554Z,3.20
2018-01-10T03:32:17.064Z,3.20
2018-01-10T03:34:45.343Z,3.20
2018-01-10T03:37:13.028Z,3.20
2018-01-10T03:39:40.539Z,3.10
2018-01-10T03:42:08.245Z,3.10
2018-01-10T03:44:35.743Z,3.30
2018-01-10T03:47:04.136Z,3.30
2018-01-10T03:49:31.891Z,3.10
2018-01-10T03:51:59.639Z,3.00
2018-01-10T03:54:27.395Z,3.10
2018-01-10T03:56:54.902Z,3.00
2018-01-10T03:59:22.575Z,3.10
2018-01-10T04:01:50.075Z,3.10
2018-01-10T04:04:17.815Z,3.20
2018-01-10T04:06:45.336Z,3.20
2018-01-10T04:09:12.825Z,3.20
2018-01-10T04:11:40.327Z,3.20
2018-01-10T04:14:07.841Z,3.30
2018-01-10T04:16:35.532Z,3.30
2018-01-10T04:19:03.027Z,3.30
2018-01-10T04:21:31.567Z,3.30
2018-01-10T04:23:59.179Z,3.30
2018-01-10T04:26:27.452Z,3.30
2018-01-10T04:28:55.427Z,3.30
2018-01-10T04:31:23.055Z,3.30
2018-01-10T04:33:50.968Z,3.30
2018-01-10T04:36:18.483Z,3.30
2018-01-10T04:38:45.995Z,3.30
2018-01-10T04:41:13.506Z,3.30
2018-01-10T04:43:41.052Z,3.30
2018-01-10T04:46:08.567Z,3.30
2018-01-10T04:48:36.755Z,3.40
2018-01-10T04:51:04.424Z,3.40
2018-01-10T04:53:32.199Z,3.40
2018-01-10T04:55:59.956Z,3.40
2018-01-10T04:58:27.715Z,3.40
2018-01-10T05:00:55.210Z,3.40
2018-01-10T05:03:22.939Z,3.50
2018-01-10T05:05:50.707Z,3.50
2018-01-10T05:08:18.208Z,3.50
2018-01-10T05:10:46.287Z,3.50
2018-01-10T05:13:13.815Z,3.50
2018-01-10T05:15:41.451Z,3.40
2018-01-10T05:18:08.955Z,3.40
2018-01-10T05:20:36.446Z,3.50
2018-01-10T05:23:04.101Z,3.50
2018-01-10T05:25:31.895Z,3.40
2018-01-10T05:27:59.409Z,3.40
2018-01-10T05:30:28.632Z,3.40
2018-01-10T05:32:57.039Z,3.50
2018-01-10T05:35:25.731Z,3.50
2018-01-10T05:37:53.467Z,3.50
2018-01-10T05:40:20.972Z,3.40
2018-01-10T05:42:48.684Z,3.40
2018-01-10T05:45:16.182Z,3.50
2018-01-10T05:47:43.696Z,3.50
2018-01-10T05:50:11.344Z,3.40
2018-01-10T05:52:38.883Z,3.40
2018-01-10T05:55:06.551Z,3.50
2018-01-10T05:57:34.661Z,3.50
2018-01-10T06:00:02.212Z,3.50
2018-01-10T06:02:30.436Z,3.50
2018-01-10T06:04:57.936Z,3.60
2018-01-10T06:07:26.423Z,3.60
2018-01-10T06:09:54.556Z,3.60
2018-01-10T06:12:22.115Z,3.70
2018-01-10T06:14:49.619Z,3.70
2018-01-10T06:17:17.131Z,3.70
2018-01-10T06:19:44.639Z,3.70
2018-01-10T06:22:12.148Z,3.70
2018-01-10T06:24:39.725Z,3.70
2018-01-10T06:27:07.251Z,3.70
2018-01-10T06:29:34.759Z,4.20
2018-01-10T06:32:02.330Z,4.60
2018-01-10T06:34:29.844Z,4.50
2018-01-10T06:36:57.355Z,4.60
2018-01-10T06:39:24.890Z,4.50
2018-01-10T06:41:53.121Z,4.50
2018-01-10T06:44:20.644Z,4.40
2018-01-10T06:46:48.395Z,4.60
2018-01-10T06:49:15.928Z,4.60
2018-01-10T06:51:43.439Z,4.40
2018-01-10T06:54:10.956Z,4.10
2018-01-10T06:56:38.460Z,4.10
2018-01-10T06:59:06.727Z,4.00
2018-01-10T07:01:34.460Z,3.90
2018-01-10T07:04:03.021Z,3.80
2018-01-10T07:06:30.539Z,3.80
2018-01-10T07:08:58.730Z,3.80
2018-01-10T07:11:26.264Z,3.80
2018-01-10T07:13:53.769Z,3.80
2018-01-10T07:16:21.271Z,3.90
2018-01-10T07:18:49.483Z,3.90
2018-01-10T07:21:18.005Z,3.90
2018-01-10T07:23:45.561Z,4.00
2018-01-10T07:26:13.199Z,3.80
2018-01-10T07:28:40.691Z,3.90
2018-01-10T07:31:08.452Z,3.90
2018-01-10T07:33:36.207Z,4.00
2018-01-10T07:36:04.583Z,4.00
2018-01-10T07:38:32.094Z,3.90
2018-01-10T07:40:59.593Z,3.90
2018-01-10T07:43:27.099Z,3.80
2018-01-10T07:45:55.375Z,3.90
2018-01-10T07:48:23.111Z,3.70
2018-01-10T07:50:50.610Z,3.70
2018-01-10T07:53:18.319Z,3.70
2018-01-10T07:55:46.696Z,3.70
2018-01-10T07:58:14.308Z,3.80
2018-01-10T08:00:42.236Z,3.90
2018-01-10T08:03:09.979Z,4.00
2018-01-10T08:05:37.487Z,4.00
2018-01-10T08:08:05.204Z,4.00
2018-01-10T08:10:33.237Z,4.00
2018-01-10T08:13:00.743Z,4.00
2018-01-10T08:15:28.244Z,4.00
2018-01-10T08:17:55.759Z,3.80
2018-01-10T08:20:23.252Z,3.80
2018-01-10T08:22:52.244Z,4.00
2018-01-10T08:25:20.511Z,4.10
2018-01-10T08:27:48.348Z,4.10
2018-01-10T08:30:16.010Z,4.00
2018-01-10T08:32:44.067Z,4.00
2018-01-10T08:35:11.566Z,4.00
2018-01-10T08:37:39.299Z,4.10
2018-01-10T08:40:06.788Z,4.20
2018-01-10T08:42:34.470Z,4.20
2018-01-10T08:45:02.273Z,4.20
2018-01-10T08:47:29.768Z,4.10
2018-01-10T08:49:57.282Z,4.20
2018-01-10T08:52:24.896Z,4.20
2018-01-10T08:54:52.399Z,4.40
2018-01-10T08:57:20.147Z,4.50
2018-01-10T08:59:48.424Z,4.50
2018-01-10T09:02:15.979Z,4.50
2018-01-10T09:04:43.692Z,4.50
2018-01-10T09:07:12.154Z,4.40
2018-01-10T09:09:39.652Z,4.40
2018-01-10T09:12:07.324Z,4.50
2018-01-10T09:14:34.839Z,4.60
2018-01-10T09:17:02.339Z,4.60
2018-01-10T09:19:29.839Z,4.60
2018-01-10T09:21:57.460Z,4.60
2018-01-10T09:24:24.963Z,4.60
2018-01-10T09:26:52.868Z,4.70
2018-01-10T09:29:21.244Z,4.60
2018-01-10T09:31:49.181Z,4.60
2018-01-10T09:34:16.651Z,4.60
2018-01-10T09:36:44.564Z,4.50
2018-01-10T09:39:12.076Z,4.60
2018-01-10T09:41:39.583Z,4.70
2018-01-10T09:44:07.082Z,4.80
2018-01-10T09:46:34.836Z,4.80
2018-01-10T09:49:02.335Z,4.80
2018-01-10T09:51:30.022Z,4.90
2018-01-10T09:53:57.523Z,4.90
2018-01-10T09:56:25.038Z,4.90
2018-01-10T09:58:52.547Z,4.90
2018-01-10T10:01:20.178Z,5.00
2018-01-10T10:03:48.004Z,5.00
2018-01-10T10:06:15.516Z,5.10
2018-01-10T10:08:43.160Z,5.10
2018-01-10T10:11:10.699Z,5.10
2018-01-10T10:13:38.203Z,5.10
2018-01-10T10:16:05.713Z,5.10
2018-01-10T10:18:33.257Z,5.10
2018-01-10T10:21:00.872Z,5.10
2018-01-10T10:23:28.482Z,5.00
2018-01-10T10:25:56.204Z,5.10
2018-01-10T10:28:23.691Z,5.10
2018-01-10T10:30:51.240Z,5.10
2018-01-10T10:33:18.739Z,5.20
2018-01-10T10:35:46.430Z,5.20
2018-01-10T10:38:13.935Z,5.20
2018-01-10T10:40:41.628Z,5.30
2018-01-10T10:43:09.143Z,5.30
2018-01-10T10:45:36.864Z,5.40
2018-01-10T10:48:04.389Z,5.50
2018-01-10T10:50:31.937Z,5.50
2018-01-10T10:52:59.538Z,5.40
2018-01-10T10:55:27.301Z,5.40
2018-01-10T10:57:54.807Z,5.50
2018-01-10T11:00:22.475Z,5.40
2018-01-10T11:02:49.987Z,5.60
2018-01-10T11:05:17.488Z,5.60
2018-01-10T11:07:45.163Z,5.60
2018-01-10T11:10:12.655Z,5.70
2018-01-10T11:12:40.408Z,5.70
2018-01-10T11:15:08.172Z,5.80
2018-01-10T11:17:35.693Z,5.80
2018-01-10T11:20:03.371Z,5.80
2018-01-10T11:22:31.159Z,5.80
2018-01-10T11:24:58.667Z,5.70
2018-01-10T11:27:26.375Z,5.70
2018-01-10T11:29:54.087Z,5.80
2018-01-10T11:32:21.908Z,5.80
2018-01-10T11:34:49.425Z,5.90
2018-01-10T11:37:17.084Z,5.90
2018-01-10T11:39:44.591Z,5.90
2018-01-10T11:42:12.346Z,6.00
2018-01-10T11:44:39.858Z,6.00
2018-01-10T11:47:07.541Z,6.00
2018-01-10T11:49:35.808Z,6.10
2018-01-10T11:52:03.399Z,6.10
2018-01-10T11:54:30.906Z,6.10
2018-01-10T11:56:58.411Z,6.10
2018-01-10T11:59:26.078Z,6.20
2018-01-10T12:01:54.138Z,6.30
2018-01-10T12:04:21.903Z,6.30
2018-01-10T12:06:49.672Z,6.30
2018-01-10T12:09:17.303Z,6.40
2018-01-10T12:11:44.878Z,6.40
2018-01-10T12:14:12.379Z,6.40
2018-01-10T12:16:39.913Z,6.30
2018-01-10T12:19:07.569Z,6.50
2018-01-10T12:21:35.083Z,6.60
2018-01-10T12:24:02.758Z,6.60
2018-01-10T12:26:31.118Z,6.60
2018-01-10T12:28:59.240Z,6.60
2018-01-10T12:31:26.754Z,6.60
2018-01-10T12:33:54.777Z,6.60
2018-01-10T12:36:22.435Z,6.60
2018-01-10T12:38:50.339Z,6.60
2018-01-10T12:41:18.236Z,6.60
2018-01-10T12:43:45.931Z,6.60
2018-01-10T12:46:14.776Z,6.50
2018-01-10T12:48:42.277Z,6.50
2018-01-10T12:51:09.783Z,6.50
2018-01-10T12:53:37.283Z,6.50
2018-01-10T12:56:04.940Z,6.50
2018-01-10T12:58:32.718Z,6.50
2018-01-10T13:01:01.088Z,6.50
2018-01-10T13:03:28.607Z,6.40
2018-01-10T13:05:56.302Z,6.50
2018-01-10T13:08:23.815Z,6.40
2018-01-10T13:10:51.727Z,6.50
2018-01-10T13:13:19.263Z,6.40
2018-01-10T13:15:46.760Z,6.40
2018-01-10T13:18:15.781Z,6.40
2018-01-10T13:20:44.112Z,6.50
2018-01-10T13:23:11.624Z,6.50
2018-01-10T13:25:39.311Z,6.50
2018-01-10T13:28:06.818Z,6.50
2018-01-10T13:30:34.526Z,6.50
2018-01-10T13:33:02.632Z,6.40
2018-01-10T13:35:30.393Z,6.40
2018-01-10T13:37:57.900Z,6.30
2018-01-10T13:40:25.571Z,6.40
2018-01-10T13:42:53.076Z,6.50
2018-01-10T13:45:20.577Z,6.40
2018-01-10T13:47:48.263Z,6.40
2018-01-10T13:50:15.760Z,6.40
2018-01-10T13:52:43.811Z,6.40
2018-01-10T13:55:11.575Z,6.40
2018-01-10T13:57:39.287Z,6.40
2018-01-10T14:00:06.795Z,6.40
2018-01-10T14:02:35.215Z,6.40
2018-01-10T14:05:03.552Z,6.50
2018-01-10T14:07:31.060Z,6.50
2018-01-10T14:09:58.567Z,6.50
2018-01-10T14:12:26.187Z,6.50
2018-01-10T14:14:53.699Z,6.40
2018-01-10T14:17:21.714Z,6.30
2018-01-10T14:19:49.224Z,6.40
2018-01-10T14:22:16.748Z,6.40
2018-01-10T14:24:45.024Z,6.40
2018-01-10T14:27:12.820Z,6.40
2018-01-10T14:29:40.579Z,6.40
2018-01-10T14:32:08.843Z,6.40
2018-01-10T14:34:36.415Z,6.40
2018-01-10T14:37:04.751Z,8.30
2018-01-10T14:39:32.772Z,6.50
2018-01-10T14:42:00.931Z,6.50
2018-01-10T14:44:28.708Z,6.50
2018-01-10T14:46:56.222Z,6.60
2018-01-10T14:49:23.768Z,6.60
2018-01-10T14:51:52.031Z,6.60
2018-01-10T14:54:19.544Z,6.60
2018-01-10T14:56:47.046Z,6.70
2018-01-10T14:59:15.307Z,6.60
2018-01-10T15:01:42.998Z,6.60
2018-01-10T15:04:11.278Z,6.50
2018-01-10T15:06:39.290Z,6.50
2018-01-10T15:09:06.821Z,6.50
2018-01-10T15:11:34.384Z,6.50
2018-01-10T15:14:02.756Z,6.50
2018-01-10T15:16:30.268Z,6.50
2018-01-10T15:18:57.772Z,6.50
2018-01-10T15:21:25.383Z,6.40
2018-01-10T15:23:52.907Z,6.40
2018-01-10T15:26:20.683Z,6.40
2018-01-10T15:28:48.182Z,6.30
2018-01-10T15:31:15.891Z,6.30
2018-01-10T15:33:43.406Z,6.40
2018-01-10T15:36:11.407Z,6.30
2018-01-10T15:38:38.916Z,6.30
2018-01-10T15:41:07.324Z,6.30
2018-01-10T15:43:34.831Z,6.30
2018-01-10T15:46:03.745Z,6.20
2018-01-10T15:48:31.472Z,6.20
2018-01-10T15:50:59.237Z,6.20
2018-01-10T15:53:26.996Z,6.20
2018-01-10T15:55:54.763Z,6.20
2018-01-10T15:58:22.656Z,6.20
2018-01-10T16:00:50.185Z,6.30
2018-01-10T16:03:17.744Z,6.30
2018-01-10T16:05:45.237Z,6.20
2018-01-10T16:08:12.944Z,6.10
2018-01-10T16:10:41.263Z,6.20
2018-01-10T16:13:09.683Z,6.30
2018-01-10T16:15:37.187Z,6.30
2018-01-10T16:18:05.249Z,6.30
2018-01-10T16:20:33.004Z,6.30
2018-01-10T16:23:00.776Z,6.30
2018-01-10T16:25:28.275Z,6.20
2018-01-10T16:27:55.774Z,3.30
2018-01-10T16:30:23.276Z,6.20
2018-01-10T16:32:50.783Z,6.20
2018-01-10T16:35:18.364Z,6.20
2018-01-10T16:37:46.744Z,6.10
2018-01-10T16:40:15.456Z,6.10
2018-01-10T16:42:43.189Z,6.10
2018-01-10T16:45:11.090Z,6.10
2018-01-10T16:47:38.599Z,6.10
2018-01-10T16:50:06.157Z,6.10
2018-01-10T16:52:34.250Z,6.20
2018-01-10T16:55:01.991Z,6.10
2018-01-10T16:57:29.512Z,6.10
2018-01-10T16:59:57.007Z,6.00
2018-01-10T17:02:25.001Z,6.00
2018-01-10T17:04:52.552Z,6.00
2018-01-10T17:07:20.056Z,6.00
2018-01-10T17:09:48.591Z,6.00
2018-01-10T17:12:16.699Z,6.10
2018-01-10T17:14:44.216Z,6.10
2018-01-10T17:17:11.740Z,6.10
2018-01-10T17:19:40.012Z,6.00
2018-01-10T17:22:07.719Z,6.00
2018-01-10T17:24:35.307Z,5.90
2018-01-10T17:27:03.583Z,6.00
2018-01-10T17:29:31.302Z,6.00
2018-01-10T17:31:58.795Z,6.00
2018-01-10T17:34:26.534Z,6.00
2018-01-10T17:36:54.568Z,6.10
2018-01-10T17:39:22.079Z,6.00
2018-01-10T17:41:49.586Z,6.10
2018-01-10T17:44:17.540Z,6.10
2018-01-10T17:46:45.060Z,6.10
2018-01-10T17:49:13.229Z,6.10
2018-01-10T17:51:41.069Z,6.10
2018-01-10T17:54:08.563Z,6.20
2018-01-10T17:56:37.023Z,6.20
2018-01-10T17:59:05.100Z,6.10
2018-01-10T18:01:33.056Z,6.00
2018-01-10T18:04:01.515Z,6.10
2018-01-10T18:06:29.611Z,6.10
2018-01-10T18:08:57.374Z,6.10
2018-01-10T18:11:25.135Z,6.00
2018-01-10T18:13:53.402Z,6.00
2018-01-10T18:16:20.924Z,6.00
2018-01-10T18:18:48.428Z,6.00
2018-01-10T18:21:16.509Z,6.10
2018-01-10T18:23:44.007Z,6.00
2018-01-10T18:26:11.692Z,6.00
2018-01-10T18:28:39.208Z,6.00
2018-01-10T18:31:06.796Z,6.00
2018-01-10T18:33:34.308Z,5.90
2018-01-10T18:36:02.214Z,5.80
2018-01-10T18:38:29.978Z,5.80
2018-01-10T18:40:57.445Z,5.80
2018-01-10T18:43:25.117Z,5.80
2018-01-10T18:45:52.630Z,5.80
2018-01-10T18:48:21.049Z,5.90
2018-01-10T18:50:48.752Z,6.00
2018-01-10T18:53:16.370Z,6.00
2018-01-10T18:55:43.875Z,6.10
2018-01-10T18:58:11.429Z,6.10
2018-01-10T19:00:38.935Z,6.00
2018-01-10T19:03:06.456Z,6.10
2018-01-10T19:05:33.967Z,6.10
2018-01-10T19:08:01.528Z,6.10
2018-01-10T19:10:29.022Z,6.10
2018-01-10T19:12:56.744Z,6.00
2018-01-10T19:15:24.456Z,6.00
2018-01-10T19:17:52.731Z,6.10
2018-01-10T19:20:20.240Z,6.10
2018-01-10T19:22:47.834Z,6.10
2018-01-10T19:25:15.330Z,6.10
2018-01-10T19:27:43.661Z,6.00
2018-01-10T19:30:11.170Z,6.10
2018-01-10T19:32:38.855Z,6.10
2018-01-10T19:35:06.367Z,6.10
2018-01-10T19:37:34.095Z,6.10
2018-01-10T19:40:01.873Z,6.10
2018-01-10T19:42:30.247Z,6.10
2018-01-10T19:44:58.012Z,6.00
2018-01-10T19:47:26.065Z,6.00
2018-01-10T19:49:54.415Z,6.00
2018-01-10T19:52:22.222Z,6.10
2018-01-10T19:54:49.749Z,6.00
2018-01-10T19:57:17.265Z,6.10
2018-01-10T19:59:45.531Z,6.10
2018-01-10T20:02:13.044Z,6.10
2018-01-10T20:04:40.547Z,6.10
2018-01-10T20:07:08.060Z,6.10
2018-01-10T20:09:35.627Z,6.10
2018-01-10T20:12:03.174Z,6.10
2018-01-10T20:14:30.691Z,6.10
2018-01-10T20:16:58.964Z,6.00
2018-01-10T20:19:27.247Z,6.00
2018-01-10T20:21:54.755Z,5.90
2018-01-10T20:24:22.272Z,6.00
2018-01-10T20:26:49.988Z,6.00
2018-01-10T20:29:17.508Z,6.10
2018-01-10T20:31:46.131Z,6.10
2018-01-10T20:34:13.908Z,6.00
2018-01-10T20:36:41.421Z,6.00
2018-01-10T20:39:08.931Z,5.90
2018-01-10T20:41:36.572Z,5.90
2018-01-10T20:44:04.079Z,6.00
2018-01-10T20:46:32.059Z,6.00
2018-01-10T20:48:59.568Z,6.00
2018-01-10T20:51:27.852Z,6.00
2018-01-10T20:53:56.127Z,6.00
2018-01-10T20:56:23.760Z,6.00
2018-01-10T20:58:51.527Z,6.00
2018-01-10T21:01:19.047Z,6.00
2018-01-10T21:03:46.552Z,6.00
2018-01-10T21:06:14.211Z,6.10
2018-01-10T21:08:41.724Z,6.00
2018-01-10T21:11:09.351Z,6.10
2018-01-10T21:13:37.621Z,6.00
2018-01-10T21:16:05.124Z,6.00
2018-01-10T21:18:32.628Z,6.00
2018-01-10T21:21:00.172Z,5.90
2018-01-10T21:23:27.728Z,5.90
2018-01-10T21:25:55.396Z,5.70
2018-01-10T21:28:23.670Z,5.70
2018-01-10T21:30:51.247Z,5.80
2018-01-10T21:33:18.986Z,5.80
2018-01-10T21:35:47.627Z,5.80
2018-01-10T21:38:15.527Z,5.80
2018-01-10T21:40:43.208Z,5.80
2018-01-10T21:43:10.715Z,5.70
2018-01-10T21:45:38.391Z,5.80
2018-01-10T21:48:05.925Z,5.80
2018-01-10T21:50:33.551Z,5.80
2018-01-10T21:53:01.107Z,5.80
2018-01-10T21:55:29.377Z,5.80
2018-01-10T21:57:57.856Z,5.80
2018-01-10T22:00:25.574Z,5.80
2018-01-10T22:02:53.083Z,5.80
2018-01-10T22:05:20.845Z,5.90
2018-01-10T22:07:48.367Z,5.90
2018-01-10T22:10:16.033Z,5.90
2018-01-10T22:12:43.945Z,5.90
2018-01-10T22:15:11.885Z,5.90
2018-01-10T22:17:39.780Z,5.90
2018-01-10T22:20:07.291Z,5.90
2018-01-10T22:22:34.799Z,6.40
2018-01-10T22:25:02.348Z,6.70
2018-01-10T22:27:29.864Z,7.20
2018-01-10T22:29:57.375Z,7.10
2018-01-10T22:32:24.884Z,7.00
2018-01-10T22:34:52.467Z,7.10
2018-01-10T22:37:20.247Z,6.80
2018-01-10T22:39:47.770Z,6.30
2018-01-10T22:42:16.712Z,6.00
2018-01-10T22:44:44.979Z,5.90
2018-01-10T22:47:12.518Z,5.80
2018-01-10T22:49:40.026Z,5.80
2018-01-10T22:52:08.295Z,5.70
2018-01-10T22:54:36.117Z,5.70
2018-01-10T22:57:03.618Z,5.70
2018-01-10T22:59:31.341Z,5.70
2018-01-10T23:01:58.832Z,5.70
2018-01-10T23:04:26.393Z,5.50
2018-01-10T23:06:54.651Z,5.50
2018-01-10T23:09:22.155Z,5.50
2018-01-10T23:11:49.703Z,5.50
2018-01-10T23:14:17.168Z,5.40
2018-01-10T23:16:45.367Z,5.40
2018-01-10T23:19:12.900Z,5.50
2018-01-10T23:21:40.391Z,5.60
2018-01-10T23:24:07.903Z,5.70
2018-01-10T23:26:35.473Z,5.70
2018-01-10T23:29:02.975Z,5.60
2018-01-10T23:31:30.684Z,5.60
2018-01-10T23:33:58.600Z,5.60
2018-01-10T23:36:26.121Z,5.50
2018-01-10T23:38:53.967Z,5.50
2018-01-10T23:41:21.874Z,5.40
2018-01-10T23:43:49.399Z,5.40
2018-01-10T23:46:17.303Z,5.40
2018-01-10T23:48:44.803Z,5.40
2018-01-10T23:51:12.307Z,5.40
2018-01-10T23:53:39.991Z,5.30
2018-01-10T23:56:07.502Z,5.20
2018-01-10T23:58:35.499Z,5.30
